Time;durP1;ratioP1;P1;durP2;ratioP2;P2;SDS_P1;SDS_P2;PMS_P1;PMS_P2;Temp;Humidity;BMP_temperature;BMP_pressure;BME280_temperature;BME280_humidity;BME280_pressure;Samples;Min_cycle;Max_cycle;Signal;HPM_P1;HPM_P2
2022/12/24 00:02:17;;;;;;;5.90;1.90;;;12.90;79.10;;;;;;5058114;28;20102;-91
2022/12/24 00:04:43;;;;;;;6.10;2.10;;;13.00;79.10;;;;;;5058183;28;20132;-92
2022/12/24 00:07:09;;;;;;;5.55;2.00;;;12.90;79.00;;;;;;5058708;28;20056;-91
2022/12/24 00:09:35;;;;;;;4.55;2.33;;;12.90;79.00;;;;;;5041849;28;20374;-90
2022/12/24 00:12:01;;;;;;;4.50;1.92;;;12.90;79.00;;;;;;5075221;28;20036;-90
2022/12/24 00:14:27;;;;;;;5.28;2.13;;;12.90;79.00;;;;;;5057727;28;20027;-92
2022/12/24 00:16:53;;;;;;;4.43;2.50;;;12.90;79.00;;;;;;5058099;28;20067;-92
2022/12/24 00:19:18;;;;;;;4.70;2.17;;;12.90;79.00;;;;;;5058332;28;20154;-92
2022/12/24 00:21:44;;;;;;;5.10;2.15;;;12.90;79.00;;;;;;5074490;28;20036;-91
2022/12/24 00:24:10;;;;;;;6.72;2.30;;;12.90;79.10;;;;;;5057847;28;20093;-91
2022/12/24 00:26:36;;;;;;;4.55;1.90;;;12.90;79.00;;;;;;5057566;28;20111;-92
2022/12/24 00:29:02;;;;;;;4.45;1.88;;;12.90;79.10;;;;;;5074981;28;20040;-91
2022/12/24 00:31:27;;;;;;;4.70;2.00;;;12.90;79.10;;;;;;5040560;28;20055;-90
2022/12/24 00:33:53;;;;;;;5.15;1.95;;;12.90;79.10;;;;;;5057713;28;20025;-91
2022/12/24 00:36:20;;;;;;;5.00;2.10;;;12.90;79.10;;;;;;5057525;28;20037;-91
2022/12/24 00:38:46;;;;;;;6.18;2.30;;;12.90;79.00;;;;;;5057318;28;20025;-89
2022/12/24 00:41:27;;;;;;;5.40;2.10;;;12.80;79.00;;;;;;5074590;28;20036;-89
2022/12/24 00:44:01;;;;;;;4.20;1.88;;;12.90;79.10;;;;;;5057643;28;20032;-90
2022/12/24 00:46:29;;;;;;;5.90;2.08;;;12.90;79.00;;;;;;5056838;28;20032;-90
2022/12/24 00:48:55;;;;;;;5.68;2.10;;;12.90;79.00;;;;;;5073692;28;20044;-90
2022/12/24 00:51:22;;;;;;;6.65;2.28;;;12.90;79.10;;;;;;5073955;28;20028;-90
2022/12/24 00:53:49;;;;;;;5.25;2.05;;;12.80;79.00;;;;;;5059026;28;20040;-89
2022/12/24 00:56:15;;;;;;;5.20;1.90;;;12.90;79.10;;;;;;5056756;28;20096;-90
2022/12/24 00:58:41;;;;;;;4.93;2.03;;;12.80;79.00;;;;;;5056755;28;20534;-89
2022/12/24 01:01:07;;;;;;;7.38;2.22;;;12.80;79.70;;;;;;5056771;28;20033;-88
2022/12/24 01:03:36;;;;;;;5.32;1.85;;;12.80;79.10;;;;;;5056701;28;20063;-89
2022/12/24 01:06:11;;;;;;;4.95;2.03;;;12.80;79.00;;;;;;5056670;28;20024;-90
2022/12/24 01:08:38;;;;;;;4.72;1.77;;;12.80;79.00;;;;;;5056914;28;20449;-89
2022/12/24 01:11:05;;;;;;;4.53;2.10;;;12.80;79.00;;;;;;5073343;28;20036;-89
2022/12/24 01:13:31;;;;;;;6.32;2.25;;;12.80;79.10;;;;;;5056961;28;20028;-88
2022/12/24 01:15:57;;;;;;;7.47;2.83;;;12.80;79.00;;;;;;5073363;28;20024;-90
2022/12/24 01:18:24;;;;;;;4.60;1.90;;;12.80;79.00;;;;;;5056803;28;20033;-89
2022/12/24 01:20:59;;;;;;;4.40;2.00;;;12.80;79.10;;;;;;5056833;28;20039;-90
2022/12/24 01:23:25;;;;;;;8.05;2.20;;;12.80;79.20;;;;;;5056378;28;20048;-86
2022/12/24 01:25:51;;;;;;;4.68;1.90;;;12.80;79.10;;;;;;5073545;28;20024;-86
2022/12/24 01:28:17;;;;;;;5.45;2.13;;;12.80;79.10;;;;;;5074139;28;20042;-86
2022/12/24 01:30:42;;;;;;;5.65;1.70;;;12.80;79.10;;;;;;5057078;28;20036;-87
2022/12/24 01:33:09;;;;;;;5.15;2.15;;;12.80;79.10;;;;;;5040533;28;20477;-86
2022/12/24 01:35:38;;;;;;;5.68;2.10;;;12.80;79.20;;;;;;5074386;28;20028;-86
2022/12/24 01:38:04;;;;;;;4.95;1.95;;;12.80;79.20;;;;;;5056692;28;20052;-87
2022/12/24 01:43:22;;;;;;;4.43;1.90;;;12.70;79.10;;;;;;5073990;28;20040;-87
2022/12/24 01:46:00;;;;;;;4.20;1.88;;;12.70;79.00;;;;;;5056947;28;20028;-87
2022/12/24 01:48:38;;;;;;;6.55;2.28;;;12.80;79.10;;;;;;5074343;28;20024;-86
2022/12/24 01:51:21;;;;;;;4.78;2.05;;;12.70;79.10;;;;;;5074433;28;20031;-87
2022/12/24 01:53:56;;;;;;;5.93;2.15;;;12.70;79.10;;;;;;5074546;28;20032;-86
2022/12/24 01:56:23;;;;;;;3.92;1.73;;;12.70;79.10;;;;;;5040404;28;20544;-86
2022/12/24 01:58:55;;;;;;;6.10;2.30;;;12.70;79.10;;;;;;5074170;28;20035;-86
2022/12/24 02:01:21;;;;;;;5.00;2.25;;;12.70;79.10;;;;;;5074623;28;20094;-87
2022/12/24 02:03:47;;;;;;;6.07;2.17;;;12.70;79.10;;;;;;5074138;28;20032;-85
2022/12/24 02:06:15;;;;;;;5.45;1.77;;;12.70;79.10;;;;;;5074707;28;20025;-88
2022/12/24 02:08:41;;;;;;;5.00;1.73;;;12.70;79.10;;;;;;5060125;28;20029;-86
2022/12/24 02:11:20;;;;;;;5.65;1.90;;;12.70;79.10;;;;;;5078670;28;20088;-87
2022/12/24 02:13:55;;;;;;;5.25;1.77;;;12.70;79.10;;;;;;5044582;28;20031;-87
2022/12/24 02:16:29;;;;;;;5.70;1.98;;;12.60;79.10;;;;;;5059782;28;20028;-86
2022/12/24 02:19:16;;;;;;;5.22;2.00;;;12.60;79.10;;;;;;5077335;28;20056;-87
2022/12/24 02:21:54;;;;;;;5.07;2.08;;;12.60;79.10;;;;;;5077041;28;20032;-86
2022/12/24 02:24:44;;;;;;;4.93;2.05;;;12.60;79.10;;;;;;5059938;28;20033;-87
2022/12/24 02:27:51;;;;;;;3.90;1.80;;;12.60;79.10;;;;;;5043665;28;20115;-87
2022/12/24 02:30:33;;;;;;;5.82;1.83;;;12.60;79.10;;;;;;5056780;28;20037;-87
2022/12/24 02:33:22;;;;;;;4.20;2.08;;;12.60;79.10;;;;;;5059688;28;20048;-87
2022/12/24 02:35:54;;;;;;;6.35;2.17;;;12.50;79.10;;;;;;5077370;28;20507;-86
2022/12/24 02:38:32;;;;;;;5.70;2.33;;;12.50;79.10;;;;;;5077410;28;20043;-86
2022/12/24 02:41:04;;;;;;;2.90;1.70;;;12.50;79.20;;;;;;5077306;28;20035;-86
2022/12/24 02:43:36;;;;;;;5.03;1.98;;;12.50;79.20;;;;;;5077459;28;20111;-86
2022/12/24 02:46:12;;;;;;;6.93;2.22;;;12.50;79.20;;;;;;5060028;28;20350;-86
2022/12/24 02:48:41;;;;;;;4.35;1.65;;;12.50;79.20;;;;;;5059481;28;20056;-86
2022/12/24 02:51:08;;;;;;;5.30;2.13;;;12.50;79.20;;;;;;5077240;28;20033;-87
2022/12/24 02:53:36;;;;;;;4.75;2.08;;;12.40;79.10;;;;;;5075996;28;20027;-87
2022/12/24 02:56:13;;;;;;;4.53;1.90;;;12.40;79.10;;;;;;5042795;28;20032;-86
2022/12/24 02:59:11;;;;;;;2.47;1.60;;;12.40;79.10;;;;;;5076184;28;20067;-86
2022/12/24 03:02:12;;;;;;;4.43;1.92;;;12.40;79.20;;;;;;5077047;28;20028;-86
2022/12/24 03:04:51;;;;;;;3.90;1.98;;;12.40;79.20;;;;;;5049076;28;20044;-85
2022/12/24 03:07:23;;;;;;;4.10;1.70;;;12.40;79.20;;;;;;5077149;28;20062;-86
2022/12/24 03:10:02;;;;;;;4.18;1.92;;;12.30;79.10;;;;;;5076019;28;20028;-86
2022/12/24 03:12:41;;;;;;;3.65;1.73;;;12.30;79.20;;;;;;5076711;28;20033;-86
2022/12/24 03:15:10;;;;;;;4.70;1.77;;;12.30;79.20;;;;;;5059305;28;20028;-86
2022/12/24 03:17:38;;;;;;;3.47;2.00;;;12.30;79.10;;;;;;5059084;28;20055;-87
2022/12/24 03:20:06;;;;;;;4.60;1.70;;;12.30;79.20;;;;;;5075647;28;20142;-86
2022/12/24 03:22:34;;;;;;;3.20;1.40;;;12.30;79.20;;;;;;5076765;28;20114;-87
2022/12/24 03:25:00;;;;;;;3.80;1.70;;;12.20;79.20;;;;;;5076510;28;20028;-86
2022/12/24 03:27:29;;;;;;;4.20;1.88;;;12.30;79.20;;;;;;5076698;28;20036;-86
2022/12/24 03:29:57;;;;;;;4.00;1.80;;;12.20;79.10;;;;;;5075551;28;20033;-86
2022/12/24 03:32:26;;;;;;;3.03;1.50;;;12.20;79.10;;;;;;5076459;28;20060;-86
2022/12/24 03:34:52;;;;;;;4.82;1.73;;;12.20;79.10;;;;;;5076417;28;20025;-86
2022/12/24 03:37:18;;;;;;;4.82;2.03;;;12.20;79.10;;;;;;5076360;28;20024;-86
2022/12/24 03:39:44;;;;;;;3.67;1.40;;;12.20;79.10;;;;;;5075420;28;20043;-86
2022/12/24 03:42:10;;;;;;;3.60;1.60;;;12.10;79.10;;;;;;5076084;28;20397;-86
2022/12/24 03:44:35;;;;;;;3.33;1.80;;;12.10;79.10;;;;;;5075577;28;20031;-84
2022/12/24 03:47:01;;;;;;;4.20;1.80;;;12.10;79.10;;;;;;5058317;28;20024;-86
2022/12/24 03:49:27;;;;;;;2.72;1.55;;;12.10;79.10;;;;;;5041939;28;20032;-86
2022/12/24 03:51:52;;;;;;;4.97;1.77;;;12.10;79.10;;;;;;5041696;28;20036;-86
2022/12/24 03:54:18;;;;;;;3.35;1.40;;;12.10;79.10;;;;;;5074855;28;20441;-86
2022/12/24 03:56:44;;;;;;;3.60;1.63;;;12.10;79.10;;;;;;5075357;28;20040;-87
2022/12/24 03:59:10;;;;;;;3.83;1.60;;;12.10;79.10;;;;;;5058085;28;20493;-87
2022/12/24 04:01:35;;;;;;;4.93;1.92;;;12.00;79.10;;;;;;5076630;28;20453;-86
2022/12/24 04:04:01;;;;;;;4.47;1.77;;;12.10;79.10;;;;;;5075656;28;20032;-86
2022/12/24 04:06:27;;;;;;;4.97;1.77;;;12.10;79.00;;;;;;5041427;28;20025;-86
2022/12/24 04:08:52;;;;;;;3.88;1.85;;;12.10;79.00;;;;;;5075344;28;20071;-86
2022/12/24 04:11:18;;;;;;;3.85;1.73;;;12.10;79.00;;;;;;5075839;28;20085;-85
2022/12/24 04:13:44;;;;;;;4.18;1.73;;;12.00;79.00;;;;;;5075368;28;20442;-85
2022/12/24 04:16:13;;;;;;;2.95;1.77;;;12.00;79.00;;;;;;5041904;28;20472;-86
2022/12/24 04:18:39;;;;;;;4.65;2.03;;;12.00;79.00;;;;;;5075263;28;20024;-86
2022/12/24 04:21:06;;;;;;;5.47;1.88;;;12.00;79.00;;;;;;5057995;28;20060;-86
2022/12/24 04:23:33;;;;;;;5.55;2.20;;;12.00;79.00;;;;;;5058217;28;20020;-85
2022/12/24 04:26:03;;;;;;;5.47;1.80;;;12.00;79.00;;;;;;5041006;28;20040;-86
2022/12/24 04:28:30;;;;;;;2.97;1.70;;;12.00;79.00;;;;;;5073662;28;20462;-87
2022/12/24 04:31:00;;;;;;;4.05;1.67;;;12.00;79.00;;;;;;5074305;28;20032;-86
2022/12/24 04:33:26;;;;;;;3.70;2.03;;;12.00;79.00;;;;;;5074359;28;20060;-87
2022/12/24 04:35:52;;;;;;;5.40;2.15;;;12.00;78.90;;;;;;5057725;28;20494;-87
2022/12/24 04:38:18;;;;;;;6.97;2.08;;;12.00;78.90;;;;;;5057839;28;20029;-84
2022/12/24 04:40:43;;;;;;;4.30;1.60;;;12.00;79.00;;;;;;5075743;28;20052;-86
2022/12/24 04:43:09;;;;;;;4.72;2.15;;;12.00;78.90;;;;;;5073889;28;20450;-86
2022/12/24 04:45:35;;;;;;;4.97;1.90;;;12.00;79.00;;;;;;5057519;28;20101;-86
2022/12/24 04:48:01;;;;;;;4.78;2.20;;;12.00;79.00;;;;;;5057496;28;20056;-87
2022/12/24 04:50:26;;;;;;;4.82;2.08;;;12.00;78.90;;;;;;5041511;28;20461;-86
2022/12/24 04:52:52;;;;;;;3.80;2.00;;;12.00;78.90;;;;;;5040482;28;20032;-85
2022/12/24 04:55:18;;;;;;;2.83;1.67;;;12.00;78.90;;;;;;5073881;28;20021;-86
2022/12/24 04:57:44;;;;;;;4.43;2.22;;;12.00;78.90;;;;;;5074356;28;20086;-87
2022/12/24 05:00:10;;;;;;;5.38;1.80;;;12.00;78.90;;;;;;5040661;28;20464;-86
2022/12/24 05:02:36;;;;;;;5.35;2.60;;;12.00;78.90;;;;;;5057363;28;20041;-84
2022/12/24 05:05:02;;;;;;;5.10;2.28;;;12.00;78.90;;;;;;5057046;28;20043;-86
2022/12/24 05:07:28;;;;;;;4.28;1.63;;;12.00;78.90;;;;;;5057100;28;20032;-87
2022/12/24 05:09:53;;;;;;;4.80;1.70;;;12.00;78.90;;;;;;5074165;28;20174;-86
2022/12/24 05:12:19;;;;;;;5.78;2.33;;;12.00;78.90;;;;;;5073576;28;20580;-86
2022/12/24 05:14:45;;;;;;;6.43;2.30;;;12.00;78.90;;;;;;5074269;28;20025;-86
2022/12/24 05:17:10;;;;;;;4.55;2.13;;;12.00;78.90;;;;;;5040665;28;20034;-86
2022/12/24 05:19:36;;;;;;;4.80;2.08;;;12.00;78.90;;;;;;5040911;28;20469;-86
2022/12/24 05:27:30;;;;;;;4.15;2.03;;;12.00;78.90;;;;;;5045549;28;20033;-86
2022/12/24 05:29:56;;;;;;;5.80;2.10;;;12.00;78.90;;;;;;5073297;28;20037;-86
2022/12/24 05:32:22;;;;;;;4.43;1.90;;;12.00;79.00;;;;;;5040118;28;20059;-87
2022/12/24 05:34:47;;;;;;;5.43;2.42;;;12.00;79.00;;;;;;5055749;28;20040;-86
2022/12/24 05:37:13;;;;;;;4.57;2.17;;;12.00;79.00;;;;;;5073000;28;20064;-87
2022/12/24 05:39:39;;;;;;;4.50;1.98;;;12.00;79.00;;;;;;5071648;28;20469;-86
2022/12/24 05:42:04;;;;;;;5.03;2.10;;;12.00;79.00;;;;;;5072487;28;20029;-86
2022/12/24 05:44:30;;;;;;;4.30;1.88;;;12.00;79.00;;;;;;5055878;28;20033;-85
2022/12/24 05:46:56;;;;;;;5.47;2.10;;;12.00;79.00;;;;;;5038776;28;20037;-86
2022/12/24 05:49:22;;;;;;;4.55;2.10;;;12.00;79.00;;;;;;5055567;28;20025;-86
2022/12/24 05:51:47;;;;;;;4.75;2.20;;;12.10;79.00;;;;;;5055506;28;20033;-86
2022/12/24 05:54:13;;;;;;;4.60;2.10;;;12.00;79.00;;;;;;5073613;28;20044;-86
2022/12/24 05:56:39;;;;;;;4.50;2.30;;;12.00;79.00;;;;;;5055665;28;20520;-86
2022/12/24 05:59:05;;;;;;;4.22;1.98;;;12.00;79.00;;;;;;5072883;28;20036;-87
2022/12/24 06:01:30;;;;;;;5.45;2.25;;;12.10;79.10;;;;;;5055325;28;20424;-86
2022/12/24 06:03:56;;;;;;;3.90;1.98;;;12.10;79.00;;;;;;5055164;28;20032;-86
2022/12/24 06:06:25;;;;;;;5.88;2.50;;;12.10;79.00;;;;;;5055510;28;20047;-86
2022/12/24 06:08:52;;;;;;;4.88;2.13;;;12.10;79.10;;;;;;5055116;28;20055;-86
2022/12/24 06:11:21;;;;;;;4.45;2.22;;;12.10;79.10;;;;;;5055512;28;20032;-84
2022/12/24 06:13:47;;;;;;;4.88;2.13;;;12.10;79.10;;;;;;5073207;28;20029;-86
2022/12/24 06:16:17;;;;;;;5.70;2.40;;;12.10;79.00;;;;;;5055433;28;20128;-86
2022/12/24 06:18:43;;;;;;;3.53;1.98;;;12.10;79.10;;;;;;5055484;28;20039;-86
2022/12/24 06:21:10;;;;;;;5.72;2.08;;;12.10;79.10;;;;;;5055313;28;20036;-86
2022/12/24 06:23:38;;;;;;;5.90;2.60;;;12.10;79.10;;;;;;5071946;28;20071;-87
2022/12/24 06:26:05;;;;;;;5.30;2.28;;;12.10;79.10;;;;;;5038490;28;20179;-85
2022/12/24 06:28:34;;;;;;;5.93;2.22;;;12.10;79.10;;;;;;5072288;28;20036;-85
2022/12/24 06:31:00;;;;;;;3.85;2.00;;;12.10;79.10;;;;;;5071774;28;20059;-86
2022/12/24 06:33:27;;;;;;;5.82;2.38;;;12.10;79.00;;;;;;5012319;28;1237269;-85
2022/12/24 06:35:52;;;;;;;6.15;2.58;;;12.10;79.10;;;;;;5055925;28;20029;-86
2022/12/24 06:38:18;;;;;;;6.15;2.30;;;12.10;79.10;;;;;;5073108;28;20060;-87
2022/12/24 06:40:45;;;;;;;6.38;2.20;;;12.10;79.10;;;;;;5057706;28;20120;-88
2022/12/24 06:43:12;;;;;;;4.82;2.03;;;12.10;79.10;;;;;;5040499;28;20048;-88
2022/12/24 06:45:38;;;;;;;6.25;2.50;;;12.10;79.10;;;;;;5056680;28;20032;-88
2022/12/24 06:48:05;;;;;;;5.53;2.33;;;12.20;79.10;;;;;;5055754;28;20392;-87
2022/12/24 06:50:33;;;;;;;4.00;2.17;;;12.20;79.20;;;;;;5072824;28;20032;-86
2022/12/24 06:52:58;;;;;;;4.75;2.05;;;12.10;79.40;;;;;;5075226;28;20024;-87
2022/12/24 06:55:24;;;;;;;7.57;2.70;;;12.10;79.10;;;;;;5076094;28;20103;-87
2022/12/24 06:57:50;;;;;;;5.22;2.42;;;12.20;79.10;;;;;;5076838;28;20024;-86
2022/12/24 07:00:16;;;;;;;6.15;2.35;;;12.20;79.20;;;;;;5059342;28;20029;-86
2022/12/24 07:02:43;;;;;;;4.75;2.20;;;12.20;79.20;;;;;;5075825;28;20051;-87
2022/12/24 07:05:11;;;;;;;3.60;2.10;;;12.10;79.10;;;;;;5077266;28;20460;-86
2022/12/24 07:07:38;;;;;;;5.40;2.30;;;12.20;79.20;;;;;;5075934;28;20401;-87
2022/12/24 07:10:06;;;;;;;4.57;2.08;;;12.20;79.20;;;;;;5077080;28;20031;-88
2022/12/24 07:12:32;;;;;;;4.47;2.17;;;12.20;79.30;;;;;;5059320;28;20105;-86
2022/12/24 07:14:57;;;;;;;5.75;2.63;;;12.20;79.30;;;;;;5059062;28;20029;-87
2022/12/24 07:17:23;;;;;;;5.68;2.30;;;12.20;79.20;;;;;;5043031;28;20040;-87
2022/12/24 07:19:49;;;;;;;5.82;2.30;;;12.20;79.30;;;;;;5060567;28;20036;-86
2022/12/24 07:22:14;;;;;;;7.00;2.88;;;12.20;79.30;;;;;;5077786;28;20090;-86
2022/12/24 07:24:40;;;;;;;5.65;2.72;;;12.20;79.30;;;;;;5076703;28;20063;-86
2022/12/24 07:27:06;;;;;;;5.22;2.50;;;12.20;79.30;;;;;;5075845;28;20135;-85
2022/12/24 07:29:31;;;;;;;5.68;2.47;;;12.20;79.30;;;;;;5075720;28;20029;-86
2022/12/24 07:31:57;;;;;;;5.72;2.40;;;12.20;79.20;;;;;;5075124;28;20048;-84
2022/12/24 07:34:23;;;;;;;3.47;2.30;;;12.20;79.20;;;;;;5075434;28;20028;-84
2022/12/24 07:36:49;;;;;;;4.35;2.13;;;12.20;79.30;;;;;;5059175;28;20385;-87
2022/12/24 07:39:14;;;;;;;4.78;2.30;;;12.20;79.30;;;;;;5075369;28;20112;-85
2022/12/24 07:41:40;;;;;;;4.38;2.10;;;12.20;79.90;;;;;;5058617;28;20048;-87
2022/12/24 07:44:06;;;;;;;5.90;2.63;;;12.20;79.30;;;;;;5076281;28;20025;-88
2022/12/24 07:46:31;;;;;;;5.55;2.38;;;12.20;79.30;;;;;;5059178;28;20476;-84
2022/12/24 07:48:57;;;;;;;4.70;2.20;;;12.20;79.30;;;;;;5076809;28;20036;-87
2022/12/24 07:51:23;;;;;;;6.18;2.95;;;12.20;79.30;;;;;;5074889;28;20108;-90
2022/12/24 07:53:49;;;;;;;6.90;2.65;;;12.30;79.40;;;;;;5075537;28;20064;-82
2022/12/24 07:56:15;;;;;;;4.97;2.42;;;12.20;79.30;;;;;;5058980;28;20035;-84
2022/12/24 07:58:41;;;;;;;4.45;2.08;;;12.30;79.40;;;;;;5076996;28;20070;-85
2022/12/24 08:01:08;;;;;;;5.60;2.47;;;12.20;79.30;;;;;;5058167;28;20050;-92
2022/12/24 08:03:34;;;;;;;4.25;2.35;;;12.30;79.30;;;;;;5040703;28;20043;-87
2022/12/24 08:06:00;;;;;;;3.80;2.08;;;12.30;79.40;;;;;;5058489;28;20029;-86
2022/12/24 08:08:26;;;;;;;5.85;2.35;;;12.30;79.40;;;;;;5058356;28;20024;-84
2022/12/24 08:10:52;;;;;;;6.05;2.58;;;12.30;79.40;;;;;;5058105;28;20028;-88
2022/12/24 08:13:17;;;;;;;4.57;2.05;;;12.30;79.40;;;;;;5058428;28;20033;-87
2022/12/24 08:15:44;;;;;;;4.88;2.20;;;12.30;79.40;;;;;;5058015;28;20032;-88
2022/12/24 08:18:10;;;;;;;4.47;2.00;;;12.30;79.40;;;;;;5075646;28;20059;-92
2022/12/24 08:20:38;;;;;;;7.65;2.50;;;12.30;79.40;;;;;;5057931;28;20037;-88
2022/12/24 08:23:05;;;;;;;4.45;2.30;;;12.30;79.30;;;;;;5057562;28;20108;-86
2022/12/24 08:25:31;;;;;;;6.75;2.58;;;12.30;79.30;;;;;;5057994;28;20029;-87
2022/12/24 08:27:56;;;;;;;6.75;2.42;;;12.30;79.30;;;;;;5041232;28;20037;-85
2022/12/24 08:30:22;;;;;;;6.07;2.30;;;12.30;79.30;;;;;;5074328;28;20032;-87
2022/12/24 08:32:48;;;;;;;6.15;2.65;;;12.30;79.20;;;;;;5075906;28;20368;-87
2022/12/24 08:35:14;;;;;;;5.78;2.30;;;12.40;79.30;;;;;;5040736;28;20033;-88
2022/12/24 08:37:39;;;;;;;3.47;2.30;;;12.40;79.30;;;;;;5074546;28;20029;-87
2022/12/24 08:40:06;;;;;;;6.35;2.88;;;12.40;79.20;;;;;;5074071;28;20530;-84
2022/12/24 08:42:31;;;;;;;4.35;2.28;;;12.40;79.20;;;;;;5058236;28;20037;-86
2022/12/24 08:44:57;;;;;;;6.97;2.85;;;12.40;79.20;;;;;;5074951;28;20035;-85
2022/12/24 08:47:23;;;;;;;5.32;2.33;;;12.40;79.30;;;;;;5058123;28;20390;-85
2022/12/24 08:49:49;;;;;;;4.75;2.35;;;12.40;79.30;;;;;;5074236;28;20107;-86
2022/12/24 08:52:14;;;;;;;5.13;2.30;;;12.40;79.20;;;;;;5074624;28;20029;-81
2022/12/24 08:54:40;;;;;;;4.10;2.13;;;12.40;79.20;;;;;;5040860;28;20535;-89
2022/12/24 08:57:06;;;;;;;4.05;2.17;;;12.40;79.20;;;;;;5057355;28;20523;-84
2022/12/24 08:59:32;;;;;;;6.00;2.58;;;12.40;79.20;;;;;;5073647;28;20020;-86
2022/12/24 09:01:57;;;;;;;4.57;2.03;;;12.40;79.20;;;;;;5040666;28;20029;-85
2022/12/24 09:04:23;;;;;;;3.40;1.92;;;12.40;79.20;;;;;;5041115;28;20101;-88
2022/12/24 09:06:49;;;;;;;4.60;2.22;;;12.40;79.20;;;;;;5073163;28;20033;-85
2022/12/24 09:09:14;;;;;;;4.82;2.00;;;12.40;79.10;;;;;;5056881;28;20036;-82
2022/12/24 09:11:40;;;;;;;5.85;2.35;;;12.50;79.20;;;;;;5056764;28;20174;-88
2022/12/24 09:14:06;;;;;;;6.40;2.38;;;12.50;79.20;;;;;;5073179;28;20068;-86
2022/12/24 09:16:31;;;;;;;4.63;2.20;;;12.50;79.20;;;;;;5074917;28;20021;-85
2022/12/24 09:18:57;;;;;;;5.20;2.17;;;12.50;79.20;;;;;;5073706;28;20032;-86
2022/12/24 09:21:24;;;;;;;4.90;2.10;;;12.50;79.10;;;;;;5057051;28;20043;-85
2022/12/24 09:23:49;;;;;;;5.60;2.10;;;12.50;79.10;;;;;;5056728;28;20496;-86
2022/12/24 09:26:18;;;;;;;5.88;2.28;;;12.50;79.10;;;;;;5073600;28;20121;-88
2022/12/24 09:28:44;;;;;;;5.07;2.22;;;12.50;79.10;;;;;;5056745;28;20024;-86
2022/12/24 09:31:12;;;;;;;5.45;2.47;;;12.50;79.10;;;;;;5057184;28;20473;-87
2022/12/24 09:33:40;;;;;;;7.35;2.28;;;12.50;79.10;;;;;;5073363;28;20052;-86
2022/12/24 09:36:06;;;;;;;5.13;2.40;;;12.50;79.00;;;;;;5056833;28;20108;-86
2022/12/24 09:38:33;;;;;;;7.47;2.55;;;12.60;79.10;;;;;;5074510;28;20025;-87
2022/12/24 09:41:00;;;;;;;4.93;2.22;;;12.60;79.10;;;;;;5056989;28;20039;-86
2022/12/24 09:43:31;;;;;;;5.10;2.25;;;12.60;79.10;;;;;;5056690;28;20036;-86
2022/12/24 09:46:29;;;;;;;4.72;2.22;;;12.60;79.10;;;;;;5074047;28;20122;-87
2022/12/24 09:49:00;;;;;;;4.32;2.40;;;12.60;79.00;;;;;;5040608;28;20068;-86
2022/12/24 09:51:32;;;;;;;5.78;2.50;;;12.60;79.00;;;;;;5074708;28;20111;-88
2022/12/24 09:54:09;;;;;;;4.68;2.22;;;12.60;79.00;;;;;;5073720;28;20052;-86
2022/12/24 09:56:45;;;;;;;5.90;2.30;;;12.60;79.00;;;;;;5073461;28;20028;-86
2022/12/24 09:59:15;;;;;;;4.93;2.40;;;12.60;79.00;;;;;;5073963;28;20028;-87
2022/12/24 10:01:41;;;;;;;5.82;2.20;;;12.70;79.00;;;;;;5056575;28;20063;-86
2022/12/24 10:04:12;;;;;;;4.95;2.50;;;12.70;79.00;;;;;;5056518;28;20033;-87
2022/12/24 10:07:22;;;;;;;4.63;2.63;;;12.70;79.10;;;;;;5056649;28;20115;-90
2022/12/24 10:10:20;;;;;;;6.47;2.45;;;12.70;79.10;;;;;;5046463;28;20556;-87
2022/12/24 10:13:12;;;;;;;4.25;2.20;;;12.70;79.00;;;;;;5072867;28;20024;-87
2022/12/24 10:16:10;;;;;;;4.03;2.20;;;12.70;79.00;;;;;;5074550;28;20074;-84
2022/12/24 10:18:47;;;;;;;3.85;2.15;;;12.70;78.90;;;;;;5040495;28;20075;-87
2022/12/24 10:21:40;;;;;;;3.05;1.85;;;12.70;79.00;;;;;;5073621;28;20036;-84
2022/12/24 10:24:20;;;;;;;4.10;2.08;;;12.70;79.00;;;;;;5073348;28;20515;-85
2022/12/24 10:27:18;;;;;;;4.50;2.40;;;12.80;79.00;;;;;;5075040;28;20021;-86
2022/12/24 10:29:51;;;;;;;4.68;2.33;;;12.80;79.00;;;;;;5060039;28;20043;-88
2022/12/24 10:32:22;;;;;;;7.70;2.67;;;12.80;79.00;;;;;;5060168;28;20128;-91
2022/12/24 10:34:57;;;;;;;6.18;2.67;;;12.80;79.00;;;;;;5060629;28;20033;-90
2022/12/24 10:37:25;;;;;;;5.72;2.50;;;12.80;79.00;;;;;;5060520;28;20032;-86
2022/12/24 10:39:51;;;;;;;5.13;2.40;;;12.80;78.90;;;;;;5077638;28;20094;-87
2022/12/24 10:42:19;;;;;;;4.57;2.40;;;12.80;78.90;;;;;;5043811;28;20127;-88
2022/12/24 10:44:49;;;;;;;4.40;2.42;;;12.80;79.00;;;;;;5043323;28;20471;-88
2022/12/24 10:47:16;;;;;;;5.50;2.30;;;12.80;78.90;;;;;;5059943;28;20033;-85
2022/12/24 10:49:59;;;;;;;3.75;2.17;;;12.80;78.90;;;;;;5076523;28;20062;-88
2022/12/24 10:52:31;;;;;;;5.68;2.50;;;12.90;79.00;;;;;;5077535;28;20032;-89
2022/12/24 10:55:16;;;;;;;5.03;2.35;;;12.90;79.00;;;;;;5059825;28;20115;-86
2022/12/24 10:57:43;;;;;;;7.20;2.80;;;12.90;79.00;;;;;;5077320;28;20029;-87
2022/12/24 11:00:20;;;;;;;4.45;2.42;;;12.90;78.90;;;;;;5076403;28;20078;-88
2022/12/24 11:02:47;;;;;;;5.32;2.58;;;12.90;79.00;;;;;;5059251;28;20127;-88
2022/12/24 11:05:28;;;;;;;5.50;2.63;;;12.90;78.90;;;;;;5059442;28;20029;-88
2022/12/24 11:08:02;;;;;;;5.22;2.60;;;13.00;79.00;;;;;;5077529;28;20035;-86
2022/12/24 11:10:30;;;;;;;6.13;2.53;;;13.00;79.00;;;;;;5075806;28;20033;-85
2022/12/24 11:12:56;;;;;;;4.70;2.50;;;13.00;78.90;;;;;;5076295;28;20036;-86
2022/12/24 11:15:29;;;;;;;7.53;2.30;;;13.00;78.90;;;;;;5059259;28;20036;-85
2022/12/24 11:18:03;;;;;;;6.57;2.35;;;13.00;78.90;;;;;;5077898;28;20104;-86
2022/12/24 11:20:34;;;;;;;4.50;2.22;;;13.10;79.00;;;;;;5060229;28;20069;-89
2022/12/24 11:23:01;;;;;;;5.15;2.50;;;13.10;78.90;;;;;;5061392;28;20032;-86
2022/12/24 11:25:33;;;;;;;5.38;2.47;;;13.10;78.90;;;;;;5059788;28;20040;-88
2022/12/24 11:28:20;;;;;;;5.53;2.60;;;13.10;78.90;;;;;;5076903;28;20024;-86
2022/12/24 11:31:01;;;;;;;4.68;2.70;;;13.10;78.90;;;;;;5058851;28;20066;-87
2022/12/24 11:33:29;;;;;;;6.80;2.90;;;13.10;78.90;;;;;;5058128;28;20056;-87
2022/12/24 11:36:06;;;;;;;6.13;2.58;;;13.20;78.90;;;;;;5076963;28;20115;-86
2022/12/24 11:38:33;;;;;;;4.53;2.15;;;13.20;78.90;;;;;;5058370;28;20028;-85
2022/12/24 11:41:11;;;;;;;4.03;2.30;;;13.20;78.90;;;;;;5041697;28;20025;-87
2022/12/24 11:43:44;;;;;;;5.80;2.28;;;13.20;78.90;;;;;;5058899;28;20033;-87
2022/12/24 11:46:19;;;;;;;6.78;2.42;;;13.20;78.90;;;;;;5075992;28;20035;-86
2022/12/24 11:48:45;;;;;;;5.75;2.63;;;13.20;78.90;;;;;;5059025;28;20038;-87
2022/12/24 11:51:26;;;;;;;4.20;2.20;;;13.20;78.90;;;;;;5076435;28;20032;-86
2022/12/24 11:54:03;;;;;;;4.63;2.53;;;13.20;78.90;;;;;;5076138;28;20107;-85
2022/12/24 11:56:43;;;;;;;6.32;2.67;;;13.30;79.00;;;;;;5058365;28;20042;-85
2022/12/24 11:59:46;;;;;;;4.93;2.20;;;13.30;79.00;;;;;;5076025;28;20052;-86
2022/12/24 12:02:24;;;;;;;6.63;2.85;;;13.20;78.90;;;;;;5043670;28;20044;-86
2022/12/24 12:04:56;;;;;;;6.00;2.65;;;13.30;78.90;;;;;;5075995;28;20025;-86
2022/12/24 12:07:32;;;;;;;3.47;2.20;;;13.30;78.90;;;;;;5075895;28;20082;-84
2022/12/24 12:10:13;;;;;;;4.50;2.20;;;13.30;79.00;;;;;;5058074;28;20024;-86
2022/12/24 12:12:49;;;;;;;5.88;2.60;;;13.30;78.90;;;;;;5058056;28;20052;-82
2022/12/24 12:16:02;;;;;;;5.25;2.90;;;13.30;78.90;;;;;;5057968;28;20033;-84
2022/12/24 12:18:45;;;;;;;6.32;2.30;;;13.30;78.90;;;;;;5012909;28;20045;-84
2022/12/24 12:21:18;;;;;;;8.30;2.58;;;13.40;78.90;;;;;;5075770;28;20116;-83
2022/12/24 12:24:05;;;;;;;4.70;2.15;;;13.40;78.90;;;;;;5041227;28;20064;-83
2022/12/24 12:26:32;;;;;;;5.68;2.38;;;13.40;78.90;;;;;;5042061;28;20033;-85
2022/12/24 12:29:03;;;;;;;4.63;2.35;;;13.40;78.80;;;;;;5074331;28;20032;-84
2022/12/24 12:31:41;;;;;;;6.25;2.42;;;13.40;78.80;;;;;;5074359;28;20032;-84
2022/12/24 12:34:19;;;;;;;5.97;2.58;;;13.50;79.00;;;;;;5041179;28;20133;-83
2022/12/24 12:36:56;;;;;;;5.43;2.08;;;13.40;78.80;;;;;;5058133;28;20488;-84
2022/12/24 12:39:23;;;;;;;4.13;2.03;;;13.40;78.80;;;;;;5074444;28;20108;-86
2022/12/24 12:42:01;;;;;;;6.25;2.10;;;13.50;78.80;;;;;;5073942;28;20040;-86
2022/12/24 12:44:45;;;;;;;2.83;1.77;;;13.50;78.80;;;;;;5057831;28;20040;-88
2022/12/24 12:47:29;;;;;;;4.60;2.30;;;13.50;78.90;;;;;;5075097;28;20062;-84
2022/12/24 12:49:58;;;;;;;4.55;2.17;;;13.50;78.80;;;;;;5056858;28;20135;-86
2022/12/24 12:53:00;;;;;;;4.82;2.20;;;13.50;78.80;;;;;;5074906;28;20034;-84
2022/12/24 12:55:35;;;;;;;6.53;2.22;;;13.50;78.90;;;;;;5074954;28;20085;-86
2022/12/24 12:58:05;;;;;;;4.68;2.35;;;13.50;78.80;;;;;;5074238;28;20028;-83
2022/12/24 13:00:37;;;;;;;5.78;2.38;;;13.50;78.80;;;;;;5075199;28;20092;-84
2022/12/24 13:03:18;;;;;;;4.85;2.10;;;13.50;78.80;;;;;;5041294;28;20032;-84
2022/12/24 13:05:55;;;;;;;4.20;2.28;;;13.50;78.90;;;;;;5073992;28;20090;-85
2022/12/24 13:08:58;;;;;;;4.35;2.00;;;13.50;78.80;;;;;;5057462;28;20024;-85
2022/12/24 13:11:41;;;;;;;4.40;1.98;;;13.50;78.90;;;;;;5075469;28;20035;-85
2022/12/24 13:14:43;;;;;;;5.38;2.40;;;13.50;78.90;;;;;;5056834;28;20031;-85